sensor_id;sensor_type;location;lat;lon;timestamp;P1;durP1;ratioP1;P2;durP2;ratioP2
17725;SDS011;8983;53.156;17.960;2023-07-20T00:02:25;5.37;;;4.03;;
17725;SDS011;8983;53.156;17.960;2023-07-20T00:04:53;4.90;;;4.10;;
17725;SDS011;8983;53.156;17.960;2023-07-20T00:07:21;4.13;;;3.63;;
17725;SDS011;8983;53.156;17.960;2023-07-20T00:09:51;3.67;;;3.37;;
17725;SDS011;8983;53.156;17.960;2023-07-20T00:12:20;4.13;;;3.50;;
17725;SDS011;8983;53.156;17.960;2023-07-20T00:14:48;6.50;;;3.60;;
17725;SDS011;8983;53.156;17.960;2023-07-20T00:17:21;3.77;;;3.40;;
17725;SDS011;8983;53.156;17.960;2023-07-20T00:19:49;5.90;;;3.50;;
17725;SDS011;8983;53.156;17.960;2023-07-20T00:22:17;3.83;;;3.43;;
17725;SDS011;8983;53.156;17.960;2023-07-20T00:24:45;4.77;;;3.57;;
17725;SDS011;8983;53.156;17.960;2023-07-20T00:27:13;4.20;;;3.80;;
17725;SDS011;8983;53.156;17.960;2023-07-20T00:29:41;7.00;;;3.87;;
17725;SDS011;8983;53.156;17.960;2023-07-20T00:32:09;4.33;;;3.13;;
17725;SDS011;8983;53.156;17.960;2023-07-20T00:34:39;4.63;;;3.67;;
17725;SDS011;8983;53.156;17.960;2023-07-20T00:37:07;4.00;;;3.60;;
17725;SDS011;8983;53.156;17.960;2023-07-20T00:39:35;4.40;;;3.23;;
17725;SDS011;8983;53.156;17.960;2023-07-20T00:42:03;5.13;;;3.57;;
17725;SDS011;8983;53.156;17.960;2023-07-20T00:44:32;5.97;;;3.20;;
17725;SDS011;8983;53.156;17.960;2023-07-20T00:47:01;6.40;;;3.40;;
17725;SDS011;8983;53.156;17.960;2023-07-20T00:49:29;6.33;;;3.67;;
17725;SDS011;8983;53.156;17.960;2023-07-20T00:51:59;3.83;;;3.30;;
17725;SDS011;8983;53.156;17.960;2023-07-20T00:54:28;4.80;;;3.93;;
17725;SDS011;8983;53.156;17.960;2023-07-20T00:56:57;5.53;;;4.00;;
17725;SDS011;8983;53.156;17.960;2023-07-20T00:59:26;5.03;;;3.80;;
17725;SDS011;8983;53.156;17.960;2023-07-20T01:01:54;4.83;;;3.57;;
17725;SDS011;8983;53.156;17.960;2023-07-20T01:04:22;5.13;;;3.73;;
17725;SDS011;8983;53.156;17.960;2023-07-20T01:06:53;4.13;;;3.47;;
17725;SDS011;8983;53.156;17.960;2023-07-20T01:09:28;5.10;;;3.53;;
17725;SDS011;8983;53.156;17.960;2023-07-20T01:12:02;4.30;;;3.73;;
17725;SDS011;8983;53.156;17.960;2023-07-20T01:14:34;5.90;;;4.07;;
17725;SDS011;8983;53.156;17.960;2023-07-20T01:17:03;4.37;;;3.67;;
17725;SDS011;8983;53.156;17.960;2023-07-20T01:19:31;4.60;;;3.30;;
17725;SDS011;8983;53.156;17.960;2023-07-20T01:22:01;4.57;;;3.63;;
17725;SDS011;8983;53.156;17.960;2023-07-20T01:24:48;4.87;;;4.37;;
17725;SDS011;8983;53.156;17.960;2023-07-20T01:27:35;5.77;;;3.80;;
17725;SDS011;8983;53.156;17.960;2023-07-20T01:30:32;4.13;;;3.73;;
17725;SDS011;8983;53.156;17.960;2023-07-20T01:33:16;3.83;;;3.53;;
17725;SDS011;8983;53.156;17.960;2023-07-20T01:35:46;4.50;;;3.93;;
17725;SDS011;8983;53.156;17.960;2023-07-20T01:38:17;7.30;;;4.20;;
17725;SDS011;8983;53.156;17.960;2023-07-20T01:40:47;4.17;;;3.60;;
17725;SDS011;8983;53.156;17.960;2023-07-20T01:43:16;5.03;;;4.10;;
17725;SDS011;8983;53.156;17.960;2023-07-20T01:45:45;4.63;;;3.90;;
17725;SDS011;8983;53.156;17.960;2023-07-20T01:48:13;5.50;;;3.90;;
17725;SDS011;8983;53.156;17.960;2023-07-20T01:50:43;4.13;;;3.70;;
17725;SDS011;8983;53.156;17.960;2023-07-20T01:53:11;6.00;;;4.13;;
17725;SDS011;8983;53.156;17.960;2023-07-20T01:55:39;4.10;;;3.60;;
17725;SDS011;8983;53.156;17.960;2023-07-20T01:58:07;5.27;;;3.90;;
17725;SDS011;8983;53.156;17.960;2023-07-20T02:00:36;5.17;;;3.67;;
17725;SDS011;8983;53.156;17.960;2023-07-20T02:03:05;4.53;;;3.80;;
17725;SDS011;8983;53.156;17.960;2023-07-20T02:05:34;5.30;;;4.00;;
17725;SDS011;8983;53.156;17.960;2023-07-20T02:08:03;4.70;;;3.90;;
17725;SDS011;8983;53.156;17.960;2023-07-20T02:10:32;4.27;;;3.50;;
17725;SDS011;8983;53.156;17.960;2023-07-20T02:13:00;4.77;;;3.80;;
17725;SDS011;8983;53.156;17.960;2023-07-20T02:15:28;4.90;;;3.70;;
17725;SDS011;8983;53.156;17.960;2023-07-20T02:17:56;4.33;;;3.80;;
17725;SDS011;8983;53.156;17.960;2023-07-20T02:20:24;4.77;;;3.67;;
17725;SDS011;8983;53.156;17.960;2023-07-20T02:22:53;4.53;;;4.07;;
17725;SDS011;8983;53.156;17.960;2023-07-20T02:25:23;5.30;;;3.60;;
17725;SDS011;8983;53.156;17.960;2023-07-20T02:27:51;5.03;;;3.50;;
17725;SDS011;8983;53.156;17.960;2023-07-20T02:30:19;4.03;;;3.63;;
17725;SDS011;8983;53.156;17.960;2023-07-20T02:32:47;4.40;;;3.80;;
17725;SDS011;8983;53.156;17.960;2023-07-20T02:35:16;4.40;;;3.67;;
17725;SDS011;8983;53.156;17.960;2023-07-20T02:37:44;4.90;;;3.70;;
17725;SDS011;8983;53.156;17.960;2023-07-20T02:40:12;3.73;;;3.37;;
17725;SDS011;8983;53.156;17.960;2023-07-20T02:42:41;4.53;;;3.57;;
17725;SDS011;8983;53.156;17.960;2023-07-20T02:45:09;4.37;;;3.97;;
17725;SDS011;8983;53.156;17.960;2023-07-20T02:47:37;6.33;;;3.80;;
17725;SDS011;8983;53.156;17.960;2023-07-20T02:50:07;4.67;;;3.70;;
17725;SDS011;8983;53.156;17.960;2023-07-20T02:52:36;4.40;;;4.00;;
17725;SDS011;8983;53.156;17.960;2023-07-20T02:55:04;4.37;;;3.70;;
17725;SDS011;8983;53.156;17.960;2023-07-20T02:57:32;5.93;;;3.80;;
17725;SDS011;8983;53.156;17.960;2023-07-20T03:00:02;5.20;;;4.47;;
17725;SDS011;8983;53.156;17.960;2023-07-20T03:02:32;5.33;;;4.00;;
17725;SDS011;8983;53.156;17.960;2023-07-20T03:05:00;5.00;;;4.53;;
17725;SDS011;8983;53.156;17.960;2023-07-20T03:07:32;5.10;;;4.10;;
17725;SDS011;8983;53.156;17.960;2023-07-20T03:10:00;4.90;;;4.40;;
17725;SDS011;8983;53.156;17.960;2023-07-20T03:12:29;4.40;;;3.97;;
17725;SDS011;8983;53.156;17.960;2023-07-20T03:14:57;4.40;;;3.93;;
17725;SDS011;8983;53.156;17.960;2023-07-20T03:17:27;5.10;;;4.20;;
17725;SDS011;8983;53.156;17.960;2023-07-20T03:19:55;5.90;;;4.40;;
17725;SDS011;8983;53.156;17.960;2023-07-20T03:22:23;6.07;;;4.13;;
17725;SDS011;8983;53.156;17.960;2023-07-20T03:24:51;8.47;;;4.10;;
17725;SDS011;8983;53.156;17.960;2023-07-20T03:27:19;6.17;;;4.73;;
17725;SDS011;8983;53.156;17.960;2023-07-20T03:29:47;5.83;;;4.20;;
17725;SDS011;8983;53.156;17.960;2023-07-20T03:32:15;6.70;;;4.67;;
17725;SDS011;8983;53.156;17.960;2023-07-20T03:34:45;7.53;;;4.80;;
17725;SDS011;8983;53.156;17.960;2023-07-20T03:37:13;6.07;;;4.73;;
17725;SDS011;8983;53.156;17.960;2023-07-20T03:39:41;8.97;;;4.73;;
17725;SDS011;8983;53.156;17.960;2023-07-20T03:42:09;6.97;;;4.67;;
17725;SDS011;8983;53.156;17.960;2023-07-20T03:44:37;5.50;;;4.63;;
17725;SDS011;8983;53.156;17.960;2023-07-20T03:47:05;5.97;;;5.30;;
17725;SDS011;8983;53.156;17.960;2023-07-20T03:49:34;6.27;;;4.77;;
17725;SDS011;8983;53.156;17.960;2023-07-20T03:52:04;4.83;;;4.40;;
17725;SDS011;8983;53.156;17.960;2023-07-20T03:54:32;6.40;;;4.83;;
17725;SDS011;8983;53.156;17.960;2023-07-20T03:57:00;6.53;;;4.20;;
17725;SDS011;8983;53.156;17.960;2023-07-20T03:59:28;4.80;;;4.33;;
17725;SDS011;8983;53.156;17.960;2023-07-20T04:01:56;5.60;;;4.33;;
17725;SDS011;8983;53.156;17.960;2023-07-20T04:04:24;6.57;;;5.00;;
17725;SDS011;8983;53.156;17.960;2023-07-20T04:06:53;6.10;;;4.07;;
17725;SDS011;8983;53.156;17.960;2023-07-20T04:09:22;4.77;;;4.27;;
17725;SDS011;8983;53.156;17.960;2023-07-20T04:11:50;5.80;;;4.30;;
17725;SDS011;8983;53.156;17.960;2023-07-20T04:14:18;4.73;;;4.23;;
17725;SDS011;8983;53.156;17.960;2023-07-20T04:16:46;4.47;;;3.67;;
17725;SDS011;8983;53.156;17.960;2023-07-20T04:19:15;5.03;;;4.20;;
17725;SDS011;8983;53.156;17.960;2023-07-20T04:21:44;7.60;;;4.20;;
17725;SDS011;8983;53.156;17.960;2023-07-20T04:24:12;5.00;;;4.07;;
17725;SDS011;8983;53.156;17.960;2023-07-20T04:26:41;4.77;;;4.13;;
17725;SDS011;8983;53.156;17.960;2023-07-20T04:29:10;5.17;;;3.67;;
17725;SDS011;8983;53.156;17.960;2023-07-20T04:31:38;3.63;;;3.33;;
17725;SDS011;8983;53.156;17.960;2023-07-20T04:34:06;4.67;;;3.97;;
17725;SDS011;8983;53.156;17.960;2023-07-20T04:36:34;4.50;;;3.80;;
17725;SDS011;8983;53.156;17.960;2023-07-20T04:39:02;4.30;;;3.43;;
17725;SDS011;8983;53.156;17.960;2023-07-20T04:41:40;5.67;;;3.60;;
17725;SDS011;8983;53.156;17.960;2023-07-20T04:44:09;4.17;;;3.77;;
17725;SDS011;8983;53.156;17.960;2023-07-20T04:46:37;6.33;;;3.80;;
17725;SDS011;8983;53.156;17.960;2023-07-20T04:49:06;7.07;;;3.50;;
17725;SDS011;8983;53.156;17.960;2023-07-20T04:51:34;6.80;;;3.53;;
17725;SDS011;8983;53.156;17.960;2023-07-20T04:54:02;4.37;;;3.73;;
17725;SDS011;8983;53.156;17.960;2023-07-20T04:56:30;5.80;;;3.30;;
17725;SDS011;8983;53.156;17.960;2023-07-20T04:59:00;9.87;;;4.10;;
17725;SDS011;8983;53.156;17.960;2023-07-20T05:01:29;4.13;;;3.10;;
17725;SDS011;8983;53.156;17.960;2023-07-20T05:03:57;6.80;;;3.70;;
17725;SDS011;8983;53.156;17.960;2023-07-20T05:06:25;4.13;;;3.73;;
17725;SDS011;8983;53.156;17.960;2023-07-20T05:08:53;4.20;;;3.80;;
17725;SDS011;8983;53.156;17.960;2023-07-20T05:11:21;4.77;;;3.63;;
17725;SDS011;8983;53.156;17.960;2023-07-20T05:13:49;6.07;;;3.80;;
17725;SDS011;8983;53.156;17.960;2023-07-20T05:16:19;4.50;;;3.33;;
17725;SDS011;8983;53.156;17.960;2023-07-20T05:18:47;5.57;;;3.67;;
17725;SDS011;8983;53.156;17.960;2023-07-20T05:21:15;5.13;;;3.90;;
17725;SDS011;8983;53.156;17.960;2023-07-20T05:23:43;4.00;;;3.30;;
17725;SDS011;8983;53.156;17.960;2023-07-20T05:26:12;7.93;;;3.00;;
17725;SDS011;8983;53.156;17.960;2023-07-20T05:28:40;2.83;;;2.63;;
17725;SDS011;8983;53.156;17.960;2023-07-20T05:31:08;4.87;;;2.87;;
17725;SDS011;8983;53.156;17.960;2023-07-20T05:33:37;3.67;;;2.87;;
17725;SDS011;8983;53.156;17.960;2023-07-20T05:36:05;4.30;;;2.70;;
17725;SDS011;8983;53.156;17.960;2023-07-20T05:38:34;4.97;;;2.70;;
17725;SDS011;8983;53.156;17.960;2023-07-20T05:41:02;3.87;;;2.87;;
17725;SDS011;8983;53.156;17.960;2023-07-20T05:43:30;2.53;;;2.20;;
17725;SDS011;8983;53.156;17.960;2023-07-20T05:45:58;3.07;;;2.53;;
17725;SDS011;8983;53.156;17.960;2023-07-20T05:48:26;4.43;;;2.40;;
17725;SDS011;8983;53.156;17.960;2023-07-20T05:50:56;3.87;;;2.50;;
17725;SDS011;8983;53.156;17.960;2023-07-20T05:53:24;3.97;;;2.50;;
17725;SDS011;8983;53.156;17.960;2023-07-20T05:55:52;2.70;;;2.50;;
17725;SDS011;8983;53.156;17.960;2023-07-20T05:58:20;2.93;;;2.47;;
17725;SDS011;8983;53.156;17.960;2023-07-20T06:00:49;2.57;;;2.13;;
17725;SDS011;8983;53.156;17.960;2023-07-20T06:03:18;3.53;;;2.30;;
17725;SDS011;8983;53.156;17.960;2023-07-20T06:05:47;2.30;;;2.10;;
17725;SDS011;8983;53.156;17.960;2023-07-20T06:08:17;3.67;;;2.20;;
17725;SDS011;8983;53.156;17.960;2023-07-20T06:10:49;4.30;;;2.20;;
17725;SDS011;8983;53.156;17.960;2023-07-20T06:13:18;2.20;;;2.07;;
17725;SDS011;8983;53.156;17.960;2023-07-20T06:15:46;1.93;;;1.70;;
17725;SDS011;8983;53.156;17.960;2023-07-20T06:18:14;2.57;;;1.70;;
17725;SDS011;8983;53.156;17.960;2023-07-20T06:20:44;2.10;;;1.90;;
17725;SDS011;8983;53.156;17.960;2023-07-20T06:23:17;2.20;;;2.00;;
17725;SDS011;8983;53.156;17.960;2023-07-20T06:25:45;3.37;;;2.13;;
17725;SDS011;8983;53.156;17.960;2023-07-20T06:28:14;2.93;;;2.00;;
17725;SDS011;8983;53.156;17.960;2023-07-20T06:30:42;2.33;;;1.80;;
17725;SDS011;8983;53.156;17.960;2023-07-20T06:33:10;3.30;;;2.00;;
17725;SDS011;8983;53.156;17.960;2023-07-20T06:35:40;3.60;;;2.23;;
17725;SDS011;8983;53.156;17.960;2023-07-20T06:38:09;2.20;;;2.00;;
17725;SDS011;8983;53.156;17.960;2023-07-20T06:40:43;2.37;;;2.10;;
17725;SDS011;8983;53.156;17.960;2023-07-20T06:43:13;2.30;;;2.03;;
17725;SDS011;8983;53.156;17.960;2023-07-20T06:45:44;3.07;;;2.27;;
17725;SDS011;8983;53.156;17.960;2023-07-20T06:48:12;2.73;;;2.17;;
17725;SDS011;8983;53.156;17.960;2023-07-20T06:50:40;2.30;;;1.97;;
17725;SDS011;8983;53.156;17.960;2023-07-20T06:53:10;5.70;;;2.33;;
17725;SDS011;8983;53.156;17.960;2023-07-20T06:55:38;3.60;;;2.13;;
17725;SDS011;8983;53.156;17.960;2023-07-20T06:58:09;3.37;;;2.43;;
17725;SDS011;8983;53.156;17.960;2023-07-20T07:00:37;2.27;;;1.87;;
17725;SDS011;8983;53.156;17.960;2023-07-20T07:03:05;1.67;;;1.57;;
17725;SDS011;8983;53.156;17.960;2023-07-20T07:05:35;2.20;;;1.67;;
17725;SDS011;8983;53.156;17.960;2023-07-20T07:08:04;1.70;;;1.60;;
17725;SDS011;8983;53.156;17.960;2023-07-20T07:10:34;2.37;;;1.70;;
17725;SDS011;8983;53.156;17.960;2023-07-20T07:13:03;1.70;;;1.60;;
17725;SDS011;8983;53.156;17.960;2023-07-20T07:15:33;1.87;;;1.70;;
17725;SDS011;8983;53.156;17.960;2023-07-20T07:18:02;2.77;;;1.50;;
17725;SDS011;8983;53.156;17.960;2023-07-20T07:20:30;1.57;;;1.33;;
17725;SDS011;8983;53.156;17.960;2023-07-20T07:22:58;2.97;;;1.70;;
17725;SDS011;8983;53.156;17.960;2023-07-20T07:25:26;1.40;;;1.30;;
17725;SDS011;8983;53.156;17.960;2023-07-20T07:27:55;4.15;;;1.77;;
17725;SDS011;8983;53.156;17.960;2023-07-20T07:30:23;2.33;;;1.77;;
17725;SDS011;8983;53.156;17.960;2023-07-20T07:32:52;1.90;;;1.67;;
17725;SDS011;8983;53.156;17.960;2023-07-20T07:35:20;6.68;;;1.70;;
17725;SDS011;8983;53.156;17.960;2023-07-20T07:37:49;1.42;;;1.33;;
17725;SDS011;8983;53.156;17.960;2023-07-20T07:40:31;1.42;;;1.33;;
17725;SDS011;8983;53.156;17.960;2023-07-20T07:43:00;2.10;;;1.20;;
17725;SDS011;8983;53.156;17.960;2023-07-20T07:45:28;1.05;;;1.05;;
17725;SDS011;8983;53.156;17.960;2023-07-20T07:47:58;3.85;;;1.27;;
17725;SDS011;8983;53.156;17.960;2023-07-20T07:50:26;1.30;;;1.20;;
17725;SDS011;8983;53.156;17.960;2023-07-20T07:52:55;1.83;;;1.30;;
17725;SDS011;8983;53.156;17.960;2023-07-20T07:55:23;2.05;;;1.50;;
17725;SDS011;8983;53.156;17.960;2023-07-20T07:57:52;2.88;;;1.60;;
17725;SDS011;8983;53.156;17.960;2023-07-20T08:00:21;1.55;;;1.35;;
17725;SDS011;8983;53.156;17.960;2023-07-20T08:02:49;1.58;;;1.48;;
17725;SDS011;8983;53.156;17.960;2023-07-20T08:05:20;1.58;;;1.33;;
17725;SDS011;8983;53.156;17.960;2023-07-20T08:07:48;2.83;;;1.30;;
17725;SDS011;8983;53.156;17.960;2023-07-20T08:10:16;3.05;;;1.40;;
17725;SDS011;8983;53.156;17.960;2023-07-20T08:12:44;1.60;;;1.38;;
17725;SDS011;8983;53.156;17.960;2023-07-20T08:15:12;1.48;;;1.38;;
17725;SDS011;8983;53.156;17.960;2023-07-20T08:17:41;1.98;;;1.70;;
17725;SDS011;8983;53.156;17.960;2023-07-20T08:20:11;1.58;;;1.45;;
17725;SDS011;8983;53.156;17.960;2023-07-20T08:22:41;1.92;;;1.35;;
17725;SDS011;8983;53.156;17.960;2023-07-20T08:25:12;1.73;;;1.40;;
17725;SDS011;8983;53.156;17.960;2023-07-20T08:27:41;1.75;;;1.30;;
17725;SDS011;8983;53.156;17.960;2023-07-20T08:30:09;2.33;;;1.20;;
17725;SDS011;8983;53.156;17.960;2023-07-20T08:32:38;2.67;;;1.42;;
17725;SDS011;8983;53.156;17.960;2023-07-20T08:35:07;1.15;;;1.15;;
17725;SDS011;8983;53.156;17.960;2023-07-20T08:37:35;1.58;;;1.45;;
17725;SDS011;8983;53.156;17.960;2023-07-20T08:40:06;1.60;;;1.50;;
17725;SDS011;8983;53.156;17.960;2023-07-20T08:42:35;1.58;;;1.40;;
17725;SDS011;8983;53.156;17.960;2023-07-20T08:45:05;1.75;;;1.45;;
17725;SDS011;8983;53.156;17.960;2023-07-20T08:47:35;2.28;;;1.60;;
17725;SDS011;8983;53.156;17.960;2023-07-20T08:50:06;2.05;;;1.25;;
17725;SDS011;8983;53.156;17.960;2023-07-20T08:52:36;1.63;;;1.30;;
17725;SDS011;8983;53.156;17.960;2023-07-20T08:55:07;2.47;;;1.35;;
17725;SDS011;8983;53.156;17.960;2023-07-20T08:57:36;1.27;;;1.20;;
17725;SDS011;8983;53.156;17.960;2023-07-20T09:00:06;1.70;;;1.60;;
17725;SDS011;8983;53.156;17.960;2023-07-20T09:02:39;1.40;;;1.30;;
17725;SDS011;8983;53.156;17.960;2023-07-20T09:05:09;3.30;;;1.50;;
17725;SDS011;8983;53.156;17.960;2023-07-20T09:07:39;1.40;;;1.30;;
17725;SDS011;8983;53.156;17.960;2023-07-20T09:10:09;1.17;;;1.17;;
17725;SDS011;8983;53.156;17.960;2023-07-20T09:12:40;1.45;;;1.35;;
17725;SDS011;8983;53.156;17.960;2023-07-20T09:15:10;1.73;;;1.20;;
17725;SDS011;8983;53.156;17.960;2023-07-20T09:17:39;2.15;;;1.23;;
17725;SDS011;8983;53.156;17.960;2023-07-20T09:20:07;1.20;;;1.10;;
17725;SDS011;8983;53.156;17.960;2023-07-20T09:22:37;1.40;;;1.30;;
17725;SDS011;8983;53.156;17.960;2023-07-20T09:25:07;1.20;;;1.10;;
17725;SDS011;8983;53.156;17.960;2023-07-20T09:27:39;1.33;;;1.25;;
17725;SDS011;8983;53.156;17.960;2023-07-20T09:30:09;1.10;;;1.10;;
17725;SDS011;8983;53.156;17.960;2023-07-20T09:32:44;3.08;;;1.10;;
17725;SDS011;8983;53.156;17.960;2023-07-20T09:35:17;2.08;;;1.10;;
17725;SDS011;8983;53.156;17.960;2023-07-20T09:37:50;1.10;;;1.10;;
17725;SDS011;8983;53.156;17.960;2023-07-20T09:40:41;1.20;;;1.00;;
17725;SDS011;8983;53.156;17.960;2023-07-20T09:43:13;1.83;;;1.17;;
17725;SDS011;8983;53.156;17.960;2023-07-20T09:45:46;1.17;;;1.17;;
17725;SDS011;8983;53.156;17.960;2023-07-20T09:48:17;1.30;;;1.20;;
17725;SDS011;8983;53.156;17.960;2023-07-20T09:50:51;6.07;;;1.23;;
17725;SDS011;8983;53.156;17.960;2023-07-20T09:53:20;1.38;;;1.27;;
17725;SDS011;8983;53.156;17.960;2023-07-20T09:55:49;1.63;;;1.15;;
17725;SDS011;8983;53.156;17.960;2023-07-20T09:58:19;2.63;;;1.15;;
17725;SDS011;8983;53.156;17.960;2023-07-20T10:00:48;1.13;;;1.02;;
17725;SDS011;8983;53.156;17.960;2023-07-20T10:03:20;1.15;;;1.13;;
17725;SDS011;8983;53.156;17.960;2023-07-20T10:05:51;2.05;;;1.38;;
17725;SDS011;8983;53.156;17.960;2023-07-20T10:08:34;1.40;;;1.00;;
17725;SDS011;8983;53.156;17.960;2023-07-20T10:11:10;1.25;;;1.05;;
17725;SDS011;8983;53.156;17.960;2023-07-20T10:13:43;0.90;;;0.90;;
17725;SDS011;8983;53.156;17.960;2023-07-20T10:16:14;1.08;;;1.00;;
17725;SDS011;8983;53.156;17.960;2023-07-20T10:18:49;2.40;;;1.13;;
17725;SDS011;8983;53.156;17.960;2023-07-20T10:21:22;1.00;;;1.00;;
17725;SDS011;8983;53.156;17.960;2023-07-20T10:23:54;1.15;;;0.95;;
17725;SDS011;8983;53.156;17.960;2023-07-20T10:26:25;1.70;;;1.05;;
17725;SDS011;8983;53.156;17.960;2023-07-20T10:28:54;2.25;;;1.90;;
17725;SDS011;8983;53.156;17.960;2023-07-20T10:31:23;2.33;;;1.33;;
17725;SDS011;8983;53.156;17.960;2023-07-20T10:33:56;1.38;;;1.13;;
17725;SDS011;8983;53.156;17.960;2023-07-20T10:36:25;0.90;;;0.90;;
17725;SDS011;8983;53.156;17.960;2023-07-20T10:38:57;1.15;;;1.10;;
17725;SDS011;8983;53.156;17.960;2023-07-20T10:41:29;1.30;;;1.20;;
17725;SDS011;8983;53.156;17.960;2023-07-20T10:44:01;0.95;;;0.95;;
17725;SDS011;8983;53.156;17.960;2023-07-20T10:46:34;1.15;;;1.08;;
17725;SDS011;8983;53.156;17.960;2023-07-20T10:49:09;1.10;;;1.08;;
17725;SDS011;8983;53.156;17.960;2023-07-20T10:51:39;1.58;;;1.20;;
17725;SDS011;8983;53.156;17.960;2023-07-20T10:54:08;1.10;;;1.00;;
17725;SDS011;8983;53.156;17.960;2023-07-20T10:56:38;2.05;;;1.05;;
17725;SDS011;8983;53.156;17.960;2023-07-20T10:59:18;2.15;;;1.40;;
17725;SDS011;8983;53.156;17.960;2023-07-20T11:01:47;1.17;;;1.08;;
17725;SDS011;8983;53.156;17.960;2023-07-20T11:04:16;1.17;;;1.08;;
17725;SDS011;8983;53.156;17.960;2023-07-20T11:06:47;1.73;;;1.17;;
17725;SDS011;8983;53.156;17.960;2023-07-20T11:09:23;1.85;;;1.20;;
17725;SDS011;8983;53.156;17.960;2023-07-20T11:12:08;1.20;;;1.10;;
17725;SDS011;8983;53.156;17.960;2023-07-20T11:14:39;3.40;;;1.50;;
17725;SDS011;8983;53.156;17.960;2023-07-20T11:17:12;4.35;;;1.10;;
17725;SDS011;8983;53.156;17.960;2023-07-20T11:19:40;1.40;;;1.30;;
17725;SDS011;8983;53.156;17.960;2023-07-20T11:22:12;1.52;;;1.30;;
17725;SDS011;8983;53.156;17.960;2023-07-20T11:24:40;6.18;;;1.40;;
17725;SDS011;8983;53.156;17.960;2023-07-20T11:27:10;1.98;;;1.00;;
17725;SDS011;8983;53.156;17.960;2023-07-20T11:29:38;2.55;;;1.00;;
17725;SDS011;8983;53.156;17.960;2023-07-20T11:32:06;0.93;;;0.93;;
17725;SDS011;8983;53.156;17.960;2023-07-20T11:34:35;2.00;;;1.08;;
17725;SDS011;8983;53.156;17.960;2023-07-20T11:37:03;1.60;;;1.20;;
17725;SDS011;8983;53.156;17.960;2023-07-20T11:39:36;0.10;;;0.10;;
17725;SDS011;8983;53.156;17.960;2023-07-20T11:42:05;0.15;;;0.15;;
17725;SDS011;8983;53.156;17.960;2023-07-20T11:44:35;0.20;;;0.20;;
17725;SDS011;8983;53.156;17.960;2023-07-20T11:47:04;0.20;;;0.20;;
17725;SDS011;8983;53.156;17.960;2023-07-20T11:49:34;0.20;;;0.20;;
17725;SDS011;8983;53.156;17.960;2023-07-20T11:52:04;0.20;;;0.20;;
17725;SDS011;8983;53.156;17.960;2023-07-20T11:54:34;0.20;;;0.20;;
17725;SDS011;8983;53.156;17.960;2023-07-20T11:57:03;0.20;;;0.20;;
17725;SDS011;8983;53.156;17.960;2023-07-20T11:59:32;0.30;;;0.30;;
17725;SDS011;8983;53.156;17.960;2023-07-20T12:02:02;0.30;;;0.30;;
17725;SDS011;8983;53.156;17.960;2023-07-20T12:04:31;0.30;;;0.30;;
17725;SDS011;8983;53.156;17.960;2023-07-20T12:06:59;0.30;;;0.30;;
17725;SDS011;8983;53.156;17.960;2023-07-20T12:09:27;0.20;;;0.20;;
17725;SDS011;8983;53.156;17.960;2023-07-20T12:12:16;0.40;;;0.40;;
17725;SDS011;8983;53.156;17.960;2023-07-20T12:14:46;0.30;;;0.30;;
17725;SDS011;8983;53.156;17.960;2023-07-20T12:17:15;0.30;;;0.30;;
17725;SDS011;8983;53.156;17.960;2023-07-20T12:19:44;0.30;;;0.30;;
17725;SDS011;8983;53.156;17.960;2023-07-20T12:22:12;0.20;;;0.20;;
17725;SDS011;8983;53.156;17.960;2023-07-20T12:24:41;0.20;;;0.20;;
17725;SDS011;8983;53.156;17.960;2023-07-20T12:27:12;0.30;;;0.30;;
17725;SDS011;8983;53.156;17.960;2023-07-20T12:29:44;0.20;;;0.20;;
17725;SDS011;8983;53.156;17.960;2023-07-20T12:32:12;0.20;;;0.20;;
17725;SDS011;8983;53.156;17.960;2023-07-20T12:34:42;0.20;;;0.20;;
17725;SDS011;8983;53.156;17.960;2023-07-20T12:37:10;0.20;;;0.20;;
17725;SDS011;8983;53.156;17.960;2023-07-20T12:39:38;0.20;;;0.20;;
17725;SDS011;8983;53.156;17.960;2023-07-20T12:42:07;0.25;;;0.25;;
17725;SDS011;8983;53.156;17.960;2023-07-20T12:44:35;0.30;;;0.30;;
17725;SDS011;8983;53.156;17.960;2023-07-20T12:47:03;0.20;;;0.20;;
17725;SDS011;8983;53.156;17.960;2023-07-20T12:49:32;0.20;;;0.20;;
17725;SDS011;8983;53.156;17.960;2023-07-20T12:52:01;0.20;;;0.20;;
17725;SDS011;8983;53.156;17.960;2023-07-20T12:54:29;0.30;;;0.30;;
17725;SDS011;8983;53.156;17.960;2023-07-20T12:56:57;0.20;;;0.20;;
17725;SDS011;8983;53.156;17.960;2023-07-20T12:59:28;0.20;;;0.20;;
17725;SDS011;8983;53.156;17.960;2023-07-20T13:01:56;0.20;;;0.20;;
17725;SDS011;8983;53.156;17.960;2023-07-20T13:04:24;0.10;;;0.10;;
17725;SDS011;8983;53.156;17.960;2023-07-20T13:06:52;0.10;;;0.10;;
17725;SDS011;8983;53.156;17.960;2023-07-20T13:09:22;0.10;;;0.10;;
17725;SDS011;8983;53.156;17.960;2023-07-20T13:11:50;0.10;;;0.10;;
17725;SDS011;8983;53.156;17.960;2023-07-20T13:14:18;0.10;;;0.10;;
17725;SDS011;8983;53.156;17.960;2023-07-20T13:16:46;0.10;;;0.10;;
17725;SDS011;8983;53.156;17.960;2023-07-20T13:19:14;0.10;;;0.10;;
17725;SDS011;8983;53.156;17.960;2023-07-20T13:21:42;0.10;;;0.10;;
17725;SDS011;8983;53.156;17.960;2023-07-20T13:24:11;0.10;;;0.10;;
17725;SDS011;8983;53.156;17.960;2023-07-20T13:26:42;0.05;;;0.05;;
17725;SDS011;8983;53.156;17.960;2023-07-20T13:29:10;0.00;;;0.00;;
17725;SDS011;8983;53.156;17.960;2023-07-20T13:31:39;0.10;;;0.10;;
17725;SDS011;8983;53.156;17.960;2023-07-20T13:34:08;0.10;;;0.10;;
17725;SDS011;8983;53.156;17.960;2023-07-20T13:36:36;0.05;;;0.05;;
17725;SDS011;8983;53.156;17.960;2023-07-20T13:39:04;0.00;;;0.00;;
17725;SDS011;8983;53.156;17.960;2023-07-20T13:41:32;0.10;;;0.10;;
17725;SDS011;8983;53.156;17.960;2023-07-20T13:44:02;0.10;;;0.10;;
17725;SDS011;8983;53.156;17.960;2023-07-20T13:46:32;0.10;;;0.10;;
17725;SDS011;8983;53.156;17.960;2023-07-20T13:49:03;0.10;;;0.10;;
17725;SDS011;8983;53.156;17.960;2023-07-20T13:51:38;0.00;;;0.00;;
17725;SDS011;8983;53.156;17.960;2023-07-20T13:54:07;0.00;;;0.00;;
17725;SDS011;8983;53.156;17.960;2023-07-20T13:56:39;0.00;;;0.00;;
17725;SDS011;8983;53.156;17.960;2023-07-20T13:59:09;0.00;;;0.00;;
17725;SDS011;8983;53.156;17.960;2023-07-20T14:01:40;0.95;;;0.60;;
17725;SDS011;8983;53.156;17.960;2023-07-20T14:04:08;0.80;;;0.80;;
17725;SDS011;8983;53.156;17.960;2023-07-20T14:06:37;0.80;;;0.80;;
17725;SDS011;8983;53.156;17.960;2023-07-20T14:09:06;0.80;;;0.80;;
17725;SDS011;8983;53.156;17.960;2023-07-20T14:11:34;1.15;;;1.00;;
17725;SDS011;8983;53.156;17.960;2023-07-20T14:14:05;0.98;;;0.90;;
17725;SDS011;8983;53.156;17.960;2023-07-20T14:16:34;0.93;;;0.93;;
17725;SDS011;8983;53.156;17.960;2023-07-20T14:19:03;0.95;;;0.93;;
17725;SDS011;8983;53.156;17.960;2023-07-20T14:21:32;1.08;;;1.08;;
17725;SDS011;8983;53.156;17.960;2023-07-20T14:24:00;0.70;;;0.70;;
17725;SDS011;8983;53.156;17.960;2023-07-20T14:26:28;1.08;;;0.82;;
17725;SDS011;8983;53.156;17.960;2023-07-20T14:28:59;0.70;;;0.70;;
17725;SDS011;8983;53.156;17.960;2023-07-20T14:31:28;0.88;;;0.80;;
17725;SDS011;8983;53.156;17.960;2023-07-20T14:33:59;0.80;;;0.80;;
17725;SDS011;8983;53.156;17.960;2023-07-20T14:36:27;2.28;;;0.88;;
17725;SDS011;8983;53.156;17.960;2023-07-20T14:38:59;0.65;;;0.60;;
17725;SDS011;8983;53.156;17.960;2023-07-20T14:41:27;1.02;;;1.00;;
17725;SDS011;8983;53.156;17.960;2023-07-20T14:43:55;3.45;;;0.85;;
17725;SDS011;8983;53.156;17.960;2023-07-20T14:46:23;0.68;;;0.68;;
17725;SDS011;8983;53.156;17.960;2023-07-20T14:48:52;0.55;;;0.55;;
17725;SDS011;8983;53.156;17.960;2023-07-20T14:51:22;0.40;;;0.40;;
17725;SDS011;8983;53.156;17.960;2023-07-20T14:53:50;1.53;;;0.70;;
17725;SDS011;8983;53.156;17.960;2023-07-20T14:56:18;1.27;;;0.70;;
17725;SDS011;8983;53.156;17.960;2023-07-20T14:58:46;1.70;;;0.93;;
17725;SDS011;8983;53.156;17.960;2023-07-20T15:01:14;0.60;;;0.60;;
17725;SDS011;8983;53.156;17.960;2023-07-20T15:03:43;0.80;;;0.80;;